sensor_id;sensor_type;location;lat;lon;timestamp;temperature;humidity
27741;DHT22;15134;48.768;9.184;2023-09-07T00:01:23;19.90;99.90
27741;DHT22;15134;48.768;9.184;2023-09-07T00:03:49;19.80;99.90
27741;DHT22;15134;48.768;9.184;2023-09-07T00:06:15;19.80;99.90
27741;DHT22;15134;48.768;9.184;2023-09-07T00:08:41;19.80;99.90
27741;DHT22;15134;48.768;9.184;2023-09-07T00:11:07;19.70;99.90
27741;DHT22;15134;48.768;9.184;2023-09-07T00:13:33;19.60;99.90
27741;DHT22;15134;48.768;9.184;2023-09-07T00:16:00;19.60;99.90
27741;DHT22;15134;48.768;9.184;2023-09-07T00:18:26;19.60;99.90
27741;DHT22;15134;48.768;9.184;2023-09-07T00:20:52;19.70;99.90
27741;DHT22;15134;48.768;9.184;2023-09-07T00:23:18;19.70;99.90
27741;DHT22;15134;48.768;9.184;2023-09-07T00:25:45;19.80;99.90
27741;DHT22;15134;48.768;9.184;2023-09-07T00:28:11;19.70;99.90
27741;DHT22;15134;48.768;9.184;2023-09-07T00:30:37;19.70;99.90
27741;DHT22;15134;48.768;9.184;2023-09-07T00:33:03;19.50;99.90
27741;DHT22;15134;48.768;9.184;2023-09-07T00:35:29;19.50;99.90
27741;DHT22;15134;48.768;9.184;2023-09-07T00:37:55;19.50;99.90
27741;DHT22;15134;48.768;9.184;2023-09-07T00:40:22;19.50;99.90
27741;DHT22;15134;48.768;9.184;2023-09-07T00:42:48;19.60;99.90
27741;DHT22;15134;48.768;9.184;2023-09-07T00:45:13;19.50;99.90
27741;DHT22;15134;48.768;9.184;2023-09-07T00:47:40;19.60;99.90
27741;DHT22;15134;48.768;9.184;2023-09-07T00:50:06;19.60;99.90
27741;DHT22;15134;48.768;9.184;2023-09-07T00:52:34;19.60;99.90
27741;DHT22;15134;48.768;9.184;2023-09-07T00:55:02;19.60;99.90
27741;DHT22;15134;48.768;9.184;2023-09-07T00:57:29;19.60;99.90
27741;DHT22;15134;48.768;9.184;2023-09-07T00:59:55;19.60;99.90
27741;DHT22;15134;48.768;9.184;2023-09-07T01:02:21;19.50;99.90
27741;DHT22;15134;48.768;9.184;2023-09-07T01:04:47;19.50;99.90
27741;DHT22;15134;48.768;9.184;2023-09-07T01:07:32;19.40;99.90
27741;DHT22;15134;48.768;9.184;2023-09-07T01:10:02;19.50;99.90
27741;DHT22;15134;48.768;9.184;2023-09-07T01:12:28;19.50;99.90
27741;DHT22;15134;48.768;9.184;2023-09-07T01:14:54;19.50;99.90
27741;DHT22;15134;48.768;9.184;2023-09-07T01:17:20;19.40;99.90
27741;DHT22;15134;48.768;9.184;2023-09-07T01:19:50;19.30;99.90
27741;DHT22;15134;48.768;9.184;2023-09-07T01:22:20;19.20;99.90
27741;DHT22;15134;48.768;9.184;2023-09-07T01:24:50;19.20;99.90
27741;DHT22;15134;48.768;9.184;2023-09-07T01:27:17;19.20;99.90
27741;DHT22;15134;48.768;9.184;2023-09-07T01:29:43;19.20;99.90
27741;DHT22;15134;48.768;9.184;2023-09-07T01:32:09;19.20;99.90
27741;DHT22;15134;48.768;9.184;2023-09-07T01:34:39;19.10;99.90
27741;DHT22;15134;48.768;9.184;2023-09-07T01:37:05;19.10;99.90
27741;DHT22;15134;48.768;9.184;2023-09-07T01:39:30;19.20;99.90
27741;DHT22;15134;48.768;9.184;2023-09-07T01:41:56;19.20;99.90
27741;DHT22;15134;48.768;9.184;2023-09-07T01:44:22;19.30;99.90
27741;DHT22;15134;48.768;9.184;2023-09-07T01:46:47;19.20;99.90
27741;DHT22;15134;48.768;9.184;2023-09-07T01:49:13;19.20;99.90
27741;DHT22;15134;48.768;9.184;2023-09-07T01:51:39;19.20;99.90
27741;DHT22;15134;48.768;9.184;2023-09-07T01:54:05;19.20;99.90
27741;DHT22;15134;48.768;9.184;2023-09-07T01:56:31;19.10;99.90
27741;DHT22;15134;48.768;9.184;2023-09-07T01:58:57;19.10;99.90
27741;DHT22;15134;48.768;9.184;2023-09-07T02:01:31;19.10;99.90
27741;DHT22;15134;48.768;9.184;2023-09-07T02:03:57;19.10;99.90
27741;DHT22;15134;48.768;9.184;2023-09-07T02:06:23;19.00;99.90
27741;DHT22;15134;48.768;9.184;2023-09-07T02:08:48;18.90;99.90
27741;DHT22;15134;48.768;9.184;2023-09-07T02:11:15;18.80;99.90
27741;DHT22;15134;48.768;9.184;2023-09-07T02:13:45;18.70;99.90
27741;DHT22;15134;48.768;9.184;2023-09-07T02:16:11;18.60;99.90
27741;DHT22;15134;48.768;9.184;2023-09-07T02:18:37;18.60;99.90
27741;DHT22;15134;48.768;9.184;2023-09-07T02:21:09;18.70;99.90
27741;DHT22;15134;48.768;9.184;2023-09-07T02:23:35;18.70;99.90
27741;DHT22;15134;48.768;9.184;2023-09-07T02:26:04;18.70;99.90
27741;DHT22;15134;48.768;9.184;2023-09-07T02:28:30;18.70;99.90
27741;DHT22;15134;48.768;9.184;2023-09-07T02:31:03;18.60;99.90
27741;DHT22;15134;48.768;9.184;2023-09-07T02:33:29;18.50;99.90
27741;DHT22;15134;48.768;9.184;2023-09-07T02:35:54;18.40;99.90
27741;DHT22;15134;48.768;9.184;2023-09-07T02:38:21;18.40;99.90
27741;DHT22;15134;48.768;9.184;2023-09-07T02:40:47;18.50;99.90
27741;DHT22;15134;48.768;9.184;2023-09-07T02:43:13;18.50;99.90
27741;DHT22;15134;48.768;9.184;2023-09-07T02:45:39;18.50;99.90
27741;DHT22;15134;48.768;9.184;2023-09-07T02:48:06;18.40;99.90
27741;DHT22;15134;48.768;9.184;2023-09-07T02:50:33;18.40;99.90
27741;DHT22;15134;48.768;9.184;2023-09-07T02:53:00;18.40;99.90
27741;DHT22;15134;48.768;9.184;2023-09-07T02:55:27;18.40;99.90
27741;DHT22;15134;48.768;9.184;2023-09-07T02:57:55;18.50;99.90
27741;DHT22;15134;48.768;9.184;2023-09-07T03:00:21;18.40;99.90
27741;DHT22;15134;48.768;9.184;2023-09-07T03:02:48;18.40;99.90
27741;DHT22;15134;48.768;9.184;2023-09-07T03:05:15;18.30;99.90
27741;DHT22;15134;48.768;9.184;2023-09-07T03:07:44;18.30;99.90
27741;DHT22;15134;48.768;9.184;2023-09-07T03:10:10;18.30;99.90
27741;DHT22;15134;48.768;9.184;2023-09-07T03:12:36;18.30;99.90
27741;DHT22;15134;48.768;9.184;2023-09-07T03:15:03;18.30;99.90
27741;DHT22;15134;48.768;9.184;2023-09-07T03:17:29;18.30;99.90
27741;DHT22;15134;48.768;9.184;2023-09-07T03:19:55;18.40;99.90
27741;DHT22;15134;48.768;9.184;2023-09-07T03:22:22;18.30;99.90
27741;DHT22;15134;48.768;9.184;2023-09-07T03:24:50;18.20;99.90
27741;DHT22;15134;48.768;9.184;2023-09-07T03:27:16;18.20;99.90
27741;DHT22;15134;48.768;9.184;2023-09-07T03:29:43;18.20;99.90
27741;DHT22;15134;48.768;9.184;2023-09-07T03:32:09;18.20;99.90
27741;DHT22;15134;48.768;9.184;2023-09-07T03:34:35;18.20;99.90
27741;DHT22;15134;48.768;9.184;2023-09-07T03:37:01;18.30;99.90
27741;DHT22;15134;48.768;9.184;2023-09-07T03:39:26;18.40;99.90
27741;DHT22;15134;48.768;9.184;2023-09-07T03:41:52;18.30;99.90
27741;DHT22;15134;48.768;9.184;2023-09-07T03:44:18;18.20;99.90
27741;DHT22;15134;48.768;9.184;2023-09-07T03:46:45;18.30;99.90
27741;DHT22;15134;48.768;9.184;2023-09-07T03:49:10;18.20;99.90
27741;DHT22;15134;48.768;9.184;2023-09-07T03:51:36;18.20;99.90
27741;DHT22;15134;48.768;9.184;2023-09-07T03:54:03;18.10;99.90
27741;DHT22;15134;48.768;9.184;2023-09-07T03:56:29;18.00;99.90
27741;DHT22;15134;48.768;9.184;2023-09-07T03:58:55;18.00;99.90
27741;DHT22;15134;48.768;9.184;2023-09-07T04:01:20;18.00;99.90
27741;DHT22;15134;48.768;9.184;2023-09-07T04:03:46;18.00;99.90
27741;DHT22;15134;48.768;9.184;2023-09-07T04:06:12;17.90;99.90
27741;DHT22;15134;48.768;9.184;2023-09-07T04:08:38;17.80;99.90
27741;DHT22;15134;48.768;9.184;2023-09-07T04:11:04;17.80;99.90
27741;DHT22;15134;48.768;9.184;2023-09-07T04:13:31;17.70;99.90
27741;DHT22;15134;48.768;9.184;2023-09-07T04:15:57;17.60;99.90
27741;DHT22;15134;48.768;9.184;2023-09-07T04:18:23;17.70;99.90
27741;DHT22;15134;48.768;9.184;2023-09-07T04:20:50;17.80;99.90
27741;DHT22;15134;48.768;9.184;2023-09-07T04:23:16;17.80;99.90
27741;DHT22;15134;48.768;9.184;2023-09-07T04:25:42;17.90;99.90
27741;DHT22;15134;48.768;9.184;2023-09-07T04:28:08;17.90;99.90
27741;DHT22;15134;48.768;9.184;2023-09-07T04:30:43;18.00;99.90
27741;DHT22;15134;48.768;9.184;2023-09-07T04:33:08;17.90;99.90
27741;DHT22;15134;48.768;9.184;2023-09-07T04:35:36;17.80;99.90
27741;DHT22;15134;48.768;9.184;2023-09-07T04:38:02;17.80;99.90
27741;DHT22;15134;48.768;9.184;2023-09-07T04:40:28;17.80;99.90
27741;DHT22;15134;48.768;9.184;2023-09-07T04:42:54;17.80;99.90
27741;DHT22;15134;48.768;9.184;2023-09-07T04:45:20;17.80;99.90
27741;DHT22;15134;48.768;9.184;2023-09-07T04:47:45;17.70;99.90
27741;DHT22;15134;48.768;9.184;2023-09-07T04:50:12;17.60;99.90
27741;DHT22;15134;48.768;9.184;2023-09-07T04:52:39;17.60;99.90
27741;DHT22;15134;48.768;9.184;2023-09-07T04:55:05;17.60;99.90
27741;DHT22;15134;48.768;9.184;2023-09-07T04:57:32;17.50;99.90
27741;DHT22;15134;48.768;9.184;2023-09-07T04:59:57;17.40;99.90
27741;DHT22;15134;48.768;9.184;2023-09-07T05:02:23;17.40;99.90
27741;DHT22;15134;48.768;9.184;2023-09-07T05:04:49;17.50;99.90
27741;DHT22;15134;48.768;9.184;2023-09-07T05:07:16;17.50;99.90
27741;DHT22;15134;48.768;9.184;2023-09-07T05:09:42;17.50;99.90
27741;DHT22;15134;48.768;9.184;2023-09-07T05:12:08;17.50;99.90
27741;DHT22;15134;48.768;9.184;2023-09-07T05:14:34;17.40;99.90
27741;DHT22;15134;48.768;9.184;2023-09-07T05:16:59;17.30;99.90
27741;DHT22;15134;48.768;9.184;2023-09-07T05:19:26;17.30;99.90
27741;DHT22;15134;48.768;9.184;2023-09-07T05:21:51;17.30;99.90
27741;DHT22;15134;48.768;9.184;2023-09-07T05:24:17;17.40;99.90
27741;DHT22;15134;48.768;9.184;2023-09-07T05:26:43;17.40;99.90
27741;DHT22;15134;48.768;9.184;2023-09-07T05:29:11;17.40;99.90
27741;DHT22;15134;48.768;9.184;2023-09-07T05:31:36;17.50;99.90
27741;DHT22;15134;48.768;9.184;2023-09-07T05:34:02;17.60;99.90
27741;DHT22;15134;48.768;9.184;2023-09-07T05:36:29;17.60;99.90
27741;DHT22;15134;48.768;9.184;2023-09-07T05:38:55;17.70;99.90
27741;DHT22;15134;48.768;9.184;2023-09-07T05:41:21;17.70;99.90
27741;DHT22;15134;48.768;9.184;2023-09-07T05:43:47;17.70;99.90
27741;DHT22;15134;48.768;9.184;2023-09-07T05:46:12;17.80;99.90
27741;DHT22;15134;48.768;9.184;2023-09-07T05:48:38;17.80;99.90
27741;DHT22;15134;48.768;9.184;2023-09-07T05:51:04;17.80;99.90
27741;DHT22;15134;48.768;9.184;2023-09-07T05:53:30;17.90;99.90
27741;DHT22;15134;48.768;9.184;2023-09-07T05:55:56;17.90;99.90
27741;DHT22;15134;48.768;9.184;2023-09-07T05:58:21;18.00;99.90
27741;DHT22;15134;48.768;9.184;2023-09-07T06:00:47;18.00;99.90
27741;DHT22;15134;48.768;9.184;2023-09-07T06:03:13;18.00;99.90
27741;DHT22;15134;48.768;9.184;2023-09-07T06:05:39;17.90;99.90
27741;DHT22;15134;48.768;9.184;2023-09-07T06:08:07;17.90;99.90
27741;DHT22;15134;48.768;9.184;2023-09-07T06:10:34;17.90;99.90
27741;DHT22;15134;48.768;9.184;2023-09-07T06:13:00;17.90;99.90
27741;DHT22;15134;48.768;9.184;2023-09-07T06:15:26;17.90;99.90
27741;DHT22;15134;48.768;9.184;2023-09-07T06:17:53;17.90;99.90
27741;DHT22;15134;48.768;9.184;2023-09-07T06:20:19;17.90;99.90
27741;DHT22;15134;48.768;9.184;2023-09-07T06:22:45;17.90;99.90
27741;DHT22;15134;48.768;9.184;2023-09-07T06:25:11;18.00;99.90
27741;DHT22;15134;48.768;9.184;2023-09-07T06:27:37;18.00;99.90
27741;DHT22;15134;48.768;9.184;2023-09-07T06:30:07;18.00;99.90
27741;DHT22;15134;48.768;9.184;2023-09-07T06:32:34;18.00;99.90
27741;DHT22;15134;48.768;9.184;2023-09-07T06:35:00;18.10;99.90
27741;DHT22;15134;48.768;9.184;2023-09-07T06:37:26;18.10;99.90
27741;DHT22;15134;48.768;9.184;2023-09-07T06:39:52;18.10;99.90
27741;DHT22;15134;48.768;9.184;2023-09-07T06:42:17;18.10;99.90
27741;DHT22;15134;48.768;9.184;2023-09-07T06:44:47;18.30;99.90
27741;DHT22;15134;48.768;9.184;2023-09-07T06:47:13;18.50;99.90
27741;DHT22;15134;48.768;9.184;2023-09-07T06:49:40;18.70;99.90
27741;DHT22;15134;48.768;9.184;2023-09-07T06:52:07;18.80;99.90
27741;DHT22;15134;48.768;9.184;2023-09-07T06:54:37;19.10;99.90
27741;DHT22;15134;48.768;9.184;2023-09-07T06:57:06;19.80;99.90
27741;DHT22;15134;48.768;9.184;2023-09-07T06:59:33;20.50;99.90
27741;DHT22;15134;48.768;9.184;2023-09-07T07:01:58;21.20;99.90
27741;DHT22;15134;48.768;9.184;2023-09-07T07:04:26;21.80;99.90
27741;DHT22;15134;48.768;9.184;2023-09-07T07:06:52;22.10;99.90
27741;DHT22;15134;48.768;9.184;2023-09-07T07:09:18;22.30;99.90
27741;DHT22;15134;48.768;9.184;2023-09-07T07:11:44;22.30;99.90
27741;DHT22;15134;48.768;9.184;2023-09-07T07:14:10;22.20;99.90
27741;DHT22;15134;48.768;9.184;2023-09-07T07:16:37;22.20;99.90
27741;DHT22;15134;48.768;9.184;2023-09-07T07:19:03;22.40;99.90
27741;DHT22;15134;48.768;9.184;2023-09-07T07:21:28;22.80;99.90
27741;DHT22;15134;48.768;9.184;2023-09-07T07:23:55;23.20;99.90
27741;DHT22;15134;48.768;9.184;2023-09-07T07:26:21;23.70;99.90
27741;DHT22;15134;48.768;9.184;2023-09-07T07:28:48;24.00;99.90
27741;DHT22;15134;48.768;9.184;2023-09-07T07:31:14;24.30;99.90
27741;DHT22;15134;48.768;9.184;2023-09-07T07:33:43;24.60;99.90
27741;DHT22;15134;48.768;9.184;2023-09-07T07:36:09;24.90;99.90
27741;DHT22;15134;48.768;9.184;2023-09-07T07:38:35;25.20;99.90
27741;DHT22;15134;48.768;9.184;2023-09-07T07:41:01;25.50;99.90
27741;DHT22;15134;48.768;9.184;2023-09-07T07:43:27;25.70;99.90
27741;DHT22;15134;48.768;9.184;2023-09-07T07:45:54;26.00;99.90
27741;DHT22;15134;48.768;9.184;2023-09-07T07:48:21;26.30;99.90
27741;DHT22;15134;48.768;9.184;2023-09-07T07:50:47;26.50;99.90
27741;DHT22;15134;48.768;9.184;2023-09-07T07:53:15;26.60;99.90
27741;DHT22;15134;48.768;9.184;2023-09-07T07:55:42;26.80;99.90
27741;DHT22;15134;48.768;9.184;2023-09-07T07:58:11;27.00;99.90
27741;DHT22;15134;48.768;9.184;2023-09-07T08:00:38;27.30;99.90
27741;DHT22;15134;48.768;9.184;2023-09-07T08:03:06;27.60;99.90
27741;DHT22;15134;48.768;9.184;2023-09-07T08:05:34;27.90;99.90
27741;DHT22;15134;48.768;9.184;2023-09-07T08:08:01;28.00;99.90
27741;DHT22;15134;48.768;9.184;2023-09-07T08:10:27;28.00;99.90
27741;DHT22;15134;48.768;9.184;2023-09-07T08:12:54;28.20;99.90
27741;DHT22;15134;48.768;9.184;2023-09-07T08:15:21;28.60;99.90
27741;DHT22;15134;48.768;9.184;2023-09-07T08:17:49;29.00;99.90
27741;DHT22;15134;48.768;9.184;2023-09-07T08:20:15;29.30;99.90
27741;DHT22;15134;48.768;9.184;2023-09-07T08:22:42;29.70;99.90
27741;DHT22;15134;48.768;9.184;2023-09-07T08:25:10;30.10;99.90
27741;DHT22;15134;48.768;9.184;2023-09-07T08:27:37;29.90;99.90
27741;DHT22;15134;48.768;9.184;2023-09-07T08:30:03;30.50;99.90
27741;DHT22;15134;48.768;9.184;2023-09-07T08:32:31;31.80;99.90
27741;DHT22;15134;48.768;9.184;2023-09-07T08:34:57;32.90;99.90
27741;DHT22;15134;48.768;9.184;2023-09-07T08:37:26;33.70;99.90
27741;DHT22;15134;48.768;9.184;2023-09-07T08:39:54;34.30;99.90
27741;DHT22;15134;48.768;9.184;2023-09-07T08:42:20;34.90;99.10
27741;DHT22;15134;48.768;9.184;2023-09-07T08:44:48;35.30;98.80
27741;DHT22;15134;48.768;9.184;2023-09-07T08:47:15;35.70;97.20
27741;DHT22;15134;48.768;9.184;2023-09-07T08:49:43;36.10;95.90
27741;DHT22;15134;48.768;9.184;2023-09-07T08:52:10;36.30;95.10
27741;DHT22;15134;48.768;9.184;2023-09-07T08:54:36;36.90;94.70
27741;DHT22;15134;48.768;9.184;2023-09-07T08:57:03;37.40;93.50
27741;DHT22;15134;48.768;9.184;2023-09-07T08:59:31;37.80;93.00
27741;DHT22;15134;48.768;9.184;2023-09-07T09:01:57;38.20;91.90
27741;DHT22;15134;48.768;9.184;2023-09-07T09:04:27;38.20;91.10
27741;DHT22;15134;48.768;9.184;2023-09-07T09:06:53;38.20;91.00
27741;DHT22;15134;48.768;9.184;2023-09-07T09:09:23;38.50;90.50
27741;DHT22;15134;48.768;9.184;2023-09-07T09:11:50;38.90;90.20
27741;DHT22;15134;48.768;9.184;2023-09-07T09:14:19;38.30;88.70
27741;DHT22;15134;48.768;9.184;2023-09-07T09:16:50;36.80;89.90
27741;DHT22;15134;48.768;9.184;2023-09-07T09:19:17;35.10;91.10
27741;DHT22;15134;48.768;9.184;2023-09-07T09:21:46;34.00;92.60
27741;DHT22;15134;48.768;9.184;2023-09-07T09:24:12;33.20;93.40
27741;DHT22;15134;48.768;9.184;2023-09-07T09:26:40;32.50;94.70
27741;DHT22;15134;48.768;9.184;2023-09-07T09:29:06;32.10;95.60
27741;DHT22;15134;48.768;9.184;2023-09-07T09:31:31;31.60;95.40
27741;DHT22;15134;48.768;9.184;2023-09-07T09:33:58;31.20;96.30
27741;DHT22;15134;48.768;9.184;2023-09-07T09:36:24;30.70;96.40
27741;DHT22;15134;48.768;9.184;2023-09-07T09:38:51;30.20;97.30
27741;DHT22;15134;48.768;9.184;2023-09-07T09:41:19;30.00;97.80
27741;DHT22;15134;48.768;9.184;2023-09-07T09:43:48;29.80;98.60
27741;DHT22;15134;48.768;9.184;2023-09-07T09:46:19;29.60;99.10
27741;DHT22;15134;48.768;9.184;2023-09-07T09:48:45;29.40;99.30
27741;DHT22;15134;48.768;9.184;2023-09-07T09:51:11;29.40;99.60
27741;DHT22;15134;48.768;9.184;2023-09-07T09:53:38;29.20;99.90
27741;DHT22;15134;48.768;9.184;2023-09-07T09:56:04;29.30;99.70
27741;DHT22;15134;48.768;9.184;2023-09-07T09:58:30;29.20;99.90
27741;DHT22;15134;48.768;9.184;2023-09-07T10:00:57;29.20;99.90
27741;DHT22;15134;48.768;9.184;2023-09-07T10:03:47;29.30;99.90
27741;DHT22;15134;48.768;9.184;2023-09-07T10:06:24;29.50;99.90
27741;DHT22;15134;48.768;9.184;2023-09-07T10:09:05;29.60;99.90
27741;DHT22;15134;48.768;9.184;2023-09-07T10:11:37;29.60;99.90
27741;DHT22;15134;48.768;9.184;2023-09-07T10:14:04;29.40;99.90
27741;DHT22;15134;48.768;9.184;2023-09-07T10:16:51;29.30;99.90
27741;DHT22;15134;48.768;9.184;2023-09-07T10:19:25;29.30;99.90
27741;DHT22;15134;48.768;9.184;2023-09-07T10:21:55;29.20;99.90
27741;DHT22;15134;48.768;9.184;2023-09-07T10:24:33;29.30;99.90
27741;DHT22;15134;48.768;9.184;2023-09-07T10:27:06;29.10;99.90
27741;DHT22;15134;48.768;9.184;2023-09-07T10:29:42;29.20;99.90
27741;DHT22;15134;48.768;9.184;2023-09-07T10:32:09;29.10;99.90
27741;DHT22;15134;48.768;9.184;2023-09-07T10:34:38;28.90;99.90
27741;DHT22;15134;48.768;9.184;2023-09-07T10:37:05;28.90;99.90
27741;DHT22;15134;48.768;9.184;2023-09-07T10:39:35;28.90;99.90
27741;DHT22;15134;48.768;9.184;2023-09-07T10:42:02;28.90;99.90
27741;DHT22;15134;48.768;9.184;2023-09-07T10:44:29;28.80;99.90
27741;DHT22;15134;48.768;9.184;2023-09-07T10:46:56;28.80;99.90
27741;DHT22;15134;48.768;9.184;2023-09-07T10:49:23;28.60;99.90
27741;DHT22;15134;48.768;9.184;2023-09-07T10:51:49;28.60;99.90
27741;DHT22;15134;48.768;9.184;2023-09-07T10:54:16;28.50;99.90
27741;DHT22;15134;48.768;9.184;2023-09-07T10:56:46;28.40;99.90
27741;DHT22;15134;48.768;9.184;2023-09-07T10:59:16;28.60;99.90
27741;DHT22;15134;48.768;9.184;2023-09-07T11:01:45;28.60;99.90
27741;DHT22;15134;48.768;9.184;2023-09-07T11:04:11;28.50;99.90
27741;DHT22;15134;48.768;9.184;2023-09-07T11:06:40;28.40;99.90
27741;DHT22;15134;48.768;9.184;2023-09-07T11:09:08;28.30;99.90
27741;DHT22;15134;48.768;9.184;2023-09-07T11:11:36;28.30;99.90
27741;DHT22;15134;48.768;9.184;2023-09-07T11:14:05;28.40;99.90
27741;DHT22;15134;48.768;9.184;2023-09-07T11:16:33;28.50;99.90
27741;DHT22;15134;48.768;9.184;2023-09-07T11:19:06;28.40;99.90
27741;DHT22;15134;48.768;9.184;2023-09-07T11:21:34;28.30;99.90
27741;DHT22;15134;48.768;9.184;2023-09-07T11:24:01;28.30;99.90
27741;DHT22;15134;48.768;9.184;2023-09-07T11:26:43;28.30;99.90
27741;DHT22;15134;48.768;9.184;2023-09-07T11:29:09;28.10;99.90
27741;DHT22;15134;48.768;9.184;2023-09-07T11:31:35;27.90;99.90
27741;DHT22;15134;48.768;9.184;2023-09-07T11:34:01;27.90;99.90
27741;DHT22;15134;48.768;9.184;2023-09-07T11:36:27;27.90;99.90
27741;DHT22;15134;48.768;9.184;2023-09-07T11:38:53;27.90;99.90
27741;DHT22;15134;48.768;9.184;2023-09-07T11:41:19;27.80;99.90
27741;DHT22;15134;48.768;9.184;2023-09-07T11:43:45;27.60;99.90
27741;DHT22;15134;48.768;9.184;2023-09-07T11:46:11;27.60;99.90
27741;DHT22;15134;48.768;9.184;2023-09-07T11:48:36;27.60;99.90
27741;DHT22;15134;48.768;9.184;2023-09-07T11:51:02;27.60;99.90
27741;DHT22;15134;48.768;9.184;2023-09-07T11:53:28;27.70;99.90
27741;DHT22;15134;48.768;9.184;2023-09-07T11:55:56;27.70;99.90
27741;DHT22;15134;48.768;9.184;2023-09-07T11:58:22;27.80;99.90
27741;DHT22;15134;48.768;9.184;2023-09-07T12:00:50;27.90;99.90
27741;DHT22;15134;48.768;9.184;2023-09-07T12:03:16;27.90;99.90
27741;DHT22;15134;48.768;9.184;2023-09-07T12:05:41;28.00;99.90
27741;DHT22;15134;48.768;9.184;2023-09-07T12:08:09;28.10;99.90
27741;DHT22;15134;48.768;9.184;2023-09-07T12:10:35;28.00;99.90
27741;DHT22;15134;48.768;9.184;2023-09-07T12:13:01;28.00;99.90
27741;DHT22;15134;48.768;9.184;2023-09-07T12:15:27;28.00;99.90
27741;DHT22;15134;48.768;9.184;2023-09-07T12:17:52;27.90;99.90
27741;DHT22;15134;48.768;9.184;2023-09-07T12:20:20;28.00;99.90
27741;DHT22;15134;48.768;9.184;2023-09-07T12:22:46;28.00;99.90
27741;DHT22;15134;48.768;9.184;2023-09-07T12:25:12;28.00;99.90
27741;DHT22;15134;48.768;9.184;2023-09-07T12:27:38;28.00;99.90
27741;DHT22;15134;48.768;9.184;2023-09-07T12:30:04;28.00;99.90
27741;DHT22;15134;48.768;9.184;2023-09-07T12:32:34;27.80;99.90
27741;DHT22;15134;48.768;9.184;2023-09-07T12:34:59;27.80;99.90
27741;DHT22;15134;48.768;9.184;2023-09-07T12:37:26;27.70;99.90
27741;DHT22;15134;48.768;9.184;2023-09-07T12:39:51;27.80;99.90
27741;DHT22;15134;48.768;9.184;2023-09-07T12:42:17;27.80;99.90
27741;DHT22;15134;48.768;9.184;2023-09-07T12:44:44;27.70;99.90
27741;DHT22;15134;48.768;9.184;2023-09-07T12:47:10;27.70;99.90
27741;DHT22;15134;48.768;9.184;2023-09-07T12:49:35;27.60;99.90
27741;DHT22;15134;48.768;9.184;2023-09-07T12:52:01;27.70;99.90
27741;DHT22;15134;48.768;9.184;2023-09-07T12:54:36;27.70;99.90
27741;DHT22;15134;48.768;9.184;2023-09-07T12:57:03;27.70;99.90
27741;DHT22;15134;48.768;9.184;2023-09-07T12:59:29;27.70;99.90
27741;DHT22;15134;48.768;9.184;2023-09-07T13:01:54;27.70;99.90
27741;DHT22;15134;48.768;9.184;2023-09-07T13:04:23;27.70;99.90
27741;DHT22;15134;48.768;9.184;2023-09-07T13:06:49;27.70;99.90
27741;DHT22;15134;48.768;9.184;2023-09-07T13:09:15;27.60;99.90
27741;DHT22;15134;48.768;9.184;2023-09-07T13:11:40;27.60;99.90
27741;DHT22;15134;48.768;9.184;2023-09-07T13:14:06;27.60;99.90
27741;DHT22;15134;48.768;9.184;2023-09-07T13:16:34;27.60;99.90
27741;DHT22;15134;48.768;9.184;2023-09-07T13:18:59;27.60;99.90
27741;DHT22;15134;48.768;9.184;2023-09-07T13:21:25;27.50;99.90
27741;DHT22;15134;48.768;9.184;2023-09-07T13:23:51;27.50;99.90
27741;DHT22;15134;48.768;9.184;2023-09-07T13:26:17;27.50;99.90
27741;DHT22;15134;48.768;9.184;2023-09-07T13:28:42;27.50;99.90
27741;DHT22;15134;48.768;9.184;2023-09-07T13:31:08;27.50;99.90
27741;DHT22;15134;48.768;9.184;2023-09-07T13:33:34;27.60;99.90
27741;DHT22;15134;48.768;9.184;2023-09-07T13:36:00;27.60;99.90
27741;DHT22;15134;48.768;9.184;2023-09-07T13:38:26;27.60;99.90
27741;DHT22;15134;48.768;9.184;2023-09-07T13:40:52;27.50;99.90
27741;DHT22;15134;48.768;9.184;2023-09-07T13:43:17;27.50;99.90
27741;DHT22;15134;48.768;9.184;2023-09-07T13:45:43;27.60;99.90
27741;DHT22;15134;48.768;9.184;2023-09-07T13:48:09;27.50;99.90
27741;DHT22;15134;48.768;9.184;2023-09-07T13:50:35;27.50;99.90
27741;DHT22;15134;48.768;9.184;2023-09-07T13:53:01;27.60;99.90
27741;DHT22;15134;48.768;9.184;2023-09-07T13:55:27;27.60;99.90
27741;DHT22;15134;48.768;9.184;2023-09-07T13:57:52;27.60;99.90
27741;DHT22;15134;48.768;9.184;2023-09-07T14:00:18;27.60;99.90
27741;DHT22;15134;48.768;9.184;2023-09-07T14:02:44;27.70;99.90
27741;DHT22;15134;48.768;9.184;2023-09-07T14:05:09;27.60;99.90
27741;DHT22;15134;48.768;9.184;2023-09-07T14:07:36;27.60;99.90
27741;DHT22;15134;48.768;9.184;2023-09-07T14:10:02;27.70;99.90
27741;DHT22;15134;48.768;9.184;2023-09-07T14:12:28;27.70;99.90
27741;DHT22;15134;48.768;9.184;2023-09-07T14:14:53;27.70;99.90
27741;DHT22;15134;48.768;9.184;2023-09-07T14:17:19;27.80;99.90
27741;DHT22;15134;48.768;9.184;2023-09-07T14:19:45;27.80;99.90
27741;DHT22;15134;48.768;9.184;2023-09-07T14:22:12;27.80;99.90
27741;DHT22;15134;48.768;9.184;2023-09-07T14:24:38;27.80;99.90
27741;DHT22;15134;48.768;9.184;2023-09-07T14:27:04;27.80;99.90
27741;DHT22;15134;48.768;9.184;2023-09-07T14:29:30;27.80;99.90
27741;DHT22;15134;48.768;9.184;2023-09-07T14:31:55;27.80;99.90
27741;DHT22;15134;48.768;9.184;2023-09-07T14:34:21;27.70;99.90
27741;DHT22;15134;48.768;9.184;2023-09-07T14:36:47;27.70;99.90
27741;DHT22;15134;48.768;9.184;2023-09-07T14:39:13;27.70;99.90
27741;DHT22;15134;48.768;9.184;2023-09-07T14:41:39;27.80;99.90
27741;DHT22;15134;48.768;9.184;2023-09-07T14:44:05;27.70;99.90
27741;DHT22;15134;48.768;9.184;2023-09-07T14:46:31;27.80;99.90
27741;DHT22;15134;48.768;9.184;2023-09-07T14:48:57;27.80;99.90
27741;DHT22;15134;48.768;9.184;2023-09-07T14:51:23;27.80;99.90
27741;DHT22;15134;48.768;9.184;2023-09-07T14:53:49;27.80;99.90
27741;DHT22;15134;48.768;9.184;2023-09-07T14:56:15;27.80;99.90
27741;DHT22;15134;48.768;9.184;2023-09-07T14:58:41;27.80;99.90
27741;DHT22;15134;48.768;9.184;2023-09-07T15:01:07;27.80;99.90
27741;DHT22;15134;48.768;9.184;2023-09-07T15:03:33;27.80;99.90
27741;DHT22;15134;48.768;9.184;2023-09-07T15:05:58;27.80;99.90
27741;DHT22;15134;48.768;9.184;2023-09-07T15:08:24;27.70;99.90
27741;DHT22;15134;48.768;9.184;2023-09-07T15:10:50;27.70;99.90
27741;DHT22;15134;48.768;9.184;2023-09-07T15:13:16;27.70;99.90
27741;DHT22;15134;48.768;9.184;2023-09-07T15:15:42;27.70;99.90
27741;DHT22;15134;48.768;9.184;2023-09-07T15:18:08;27.60;99.90
27741;DHT22;15134;48.768;9.184;2023-09-07T15:20:34;27.60;99.90
27741;DHT22;15134;48.768;9.184;2023-09-07T15:23:00;27.60;99.90
27741;DHT22;15134;48.768;9.184;2023-09-07T15:25:26;27.60;99.90
27741;DHT22;15134;48.768;9.184;2023-09-07T15:27:55;27.60;99.90